createdAt,value
2023-03-17T00:00:32.212Z,100780.0
2023-03-17T00:05:31.788Z,100780.0
2023-03-17T00:10:32.286Z,100780.0
2023-03-17T00:15:31.762Z,100790.0
2023-03-17T00:20:32.189Z,100800.0
2023-03-17T00:25:31.774Z,100800.0
2023-03-17T00:30:32.303Z,100790.0
2023-03-17T00:35:31.837Z,100790.0
2023-03-17T00:40:32.225Z,100770.0
2023-03-17T00:45:31.789Z,100770.0
2023-03-17T00:50:32.263Z,100760.0
2023-03-17T00:55:31.783Z,100760.0
2023-03-17T01:00:32.179Z,100760.0
2023-03-17T01:05:31.793Z,100760.0
2023-03-17T01:10:32.243Z,100740.0
2023-03-17T01:15:31.795Z,100740.0
2023-03-17T01:20:32.227Z,100740.0
2023-03-17T01:25:31.808Z,100750.0
2023-03-17T01:30:32.372Z,100760.0
2023-03-17T01:35:31.877Z,100740.0
2023-03-17T01:40:32.354Z,100730.0
2023-03-17T01:45:31.821Z,100740.0
2023-03-17T01:50:32.013Z,100730.0
2023-03-17T01:55:31.809Z,100720.0
2023-03-17T02:00:32.270Z,100720.0
2023-03-17T02:05:31.812Z,100720.0
2023-03-17T02:10:32.268Z,100720.0
2023-03-17T02:15:31.821Z,100710.0
2023-03-17T02:20:32.352Z,100700.0
2023-03-17T02:25:31.831Z,100700.0
2023-03-17T02:30:32.139Z,100710.0
2023-03-17T02:35:32.000Z,100700.0
2023-03-17T02:40:32.231Z,100690.0
2023-03-17T02:45:31.839Z,100690.0
2023-03-17T02:50:32.223Z,100700.0
2023-03-17T02:55:31.853Z,100680.0
2023-03-17T03:00:32.340Z,100680.0
2023-03-17T03:05:31.853Z,100690.0
2023-03-17T03:10:32.333Z,100680.0
2023-03-17T03:15:31.932Z,100680.0
2023-03-17T03:20:32.145Z,100690.0
2023-03-17T03:25:31.860Z,100680.0
2023-03-17T03:30:32.332Z,100670.0
2023-03-17T03:35:31.914Z,100670.0
2023-03-17T03:40:32.312Z,100680.0
2023-03-17T03:45:31.869Z,100670.0
2023-03-17T03:50:32.108Z,100680.0
2023-03-17T03:55:31.880Z,100690.0
2023-03-17T04:00:32.551Z,100700.0
2023-03-17T04:05:31.894Z,100710.0
2023-03-17T04:10:32.243Z,100700.0
2023-03-17T04:15:31.883Z,100710.0
2023-03-17T04:20:32.424Z,100720.0
2023-03-17T04:25:31.886Z,100710.0
2023-03-17T04:30:32.350Z,100710.0
2023-03-17T04:35:31.934Z,100690.0
2023-03-17T04:40:32.285Z,100700.0
2023-03-17T04:45:31.958Z,100700.0
2023-03-17T04:50:32.379Z,100700.0
2023-03-17T04:55:31.901Z,100720.0
2023-03-17T05:00:32.102Z,100730.0
2023-03-17T05:05:31.936Z,100700.0
2023-03-17T05:10:32.330Z,100720.0
2023-03-17T05:15:31.911Z,100710.0
2023-03-17T05:20:32.420Z,100710.0
2023-03-17T05:30:32.136Z,100680.0
2023-03-17T05:35:31.952Z,100680.0
2023-03-17T05:40:32.190Z,100690.0
2023-03-17T05:45:31.920Z,100700.0
2023-03-17T05:50:32.206Z,100710.0
2023-03-17T05:55:31.933Z,100700.0
2023-03-17T06:00:32.289Z,100700.0
2023-03-17T06:05:31.935Z,100690.0
2023-03-17T06:10:32.211Z,100690.0
2023-03-17T06:15:32.229Z,100700.0
2023-03-17T06:20:31.944Z,100710.0
2023-03-17T06:25:32.572Z,100710.0
2023-03-17T06:30:31.951Z,100710.0
2023-03-17T06:35:32.300Z,100700.0
2023-03-17T06:40:31.961Z,100710.0
2023-03-17T06:45:32.364Z,100700.0
2023-03-17T06:50:31.962Z,100720.0
2023-03-17T06:55:32.421Z,100700.0
2023-03-17T07:00:32.103Z,100690.0
2023-03-17T07:05:32.323Z,100690.0
2023-03-17T07:10:32.025Z,100690.0
2023-03-17T07:15:32.365Z,100690.0
2023-03-17T07:20:32.121Z,100710.0
2023-03-17T07:25:32.268Z,100710.0
2023-03-17T07:30:32.041Z,100700.0
2023-03-17T07:35:32.282Z,100700.0
2023-03-17T07:40:34.311Z,100700.0
2023-03-17T07:45:32.356Z,100690.0
2023-03-17T07:50:32.008Z,100700.0
2023-03-17T07:55:32.466Z,100690.0
2023-03-17T08:00:32.387Z,100690.0
2023-03-17T08:05:32.019Z,100690.0
2023-03-17T08:10:32.287Z,100690.0
2023-03-17T08:15:31.965Z,100690.0
2023-03-17T08:20:32.407Z,100690.0
2023-03-17T08:25:32.097Z,100700.0
2023-03-17T08:30:33.805Z,100700.0
2023-03-17T08:35:32.204Z,100690.0
2023-03-17T08:40:32.357Z,100700.0
2023-03-17T08:45:32.255Z,100690.0
2023-03-17T08:50:32.273Z,100690.0
2023-03-17T08:55:31.955Z,100680.0
2023-03-17T09:00:32.412Z,100670.0
2023-03-17T09:05:32.469Z,100660.0
2023-03-17T09:10:32.255Z,100660.0
2023-03-17T09:15:32.312Z,100670.0
2023-03-17T09:20:32.367Z,100690.0
2023-03-17T09:25:31.977Z,100680.0
2023-03-17T09:30:32.331Z,100670.0
2023-03-17T09:35:32.021Z,100680.0
2023-03-17T09:40:32.322Z,100670.0
2023-03-17T09:45:32.004Z,100670.0
2023-03-17T09:50:32.402Z,100680.0
2023-03-17T09:55:32.220Z,100670.0
2023-03-17T10:00:32.007Z,100660.0
2023-03-17T10:05:32.331Z,100660.0
2023-03-17T10:10:32.419Z,100660.0
2023-03-17T10:15:32.297Z,100670.0
2023-03-17T10:20:32.023Z,100660.0
2023-03-17T10:25:32.274Z,100670.0
2023-03-17T10:30:32.384Z,100670.0
2023-03-17T10:35:32.424Z,100670.0
2023-03-17T10:40:32.343Z,100660.0
2023-03-17T10:45:32.044Z,100650.0
2023-03-17T10:50:32.369Z,100630.0
2023-03-17T10:55:32.048Z,100630.0
2023-03-17T11:00:32.512Z,100650.0
2023-03-17T11:05:32.073Z,100640.0
2023-03-17T11:10:32.412Z,100650.0
2023-03-17T11:15:32.073Z,100650.0
2023-03-17T11:20:32.560Z,100650.0
2023-03-17T11:25:32.125Z,100640.0
2023-03-17T11:30:32.580Z,100640.0
2023-03-17T11:35:32.105Z,100620.0
2023-03-17T11:40:32.580Z,100620.0
2023-03-17T11:45:32.104Z,100630.0
2023-03-17T11:50:32.271Z,100640.0
2023-03-17T11:55:32.111Z,100630.0
2023-03-17T12:00:32.443Z,100630.0
2023-03-17T12:05:32.108Z,100610.0
2023-03-17T12:10:32.438Z,100600.0
2023-03-17T12:15:32.172Z,100600.0
2023-03-17T12:20:32.590Z,100600.0
2023-03-17T12:25:32.133Z,100610.0
2023-03-17T12:30:32.665Z,100600.0
2023-03-17T12:35:33.038Z,100590.0
2023-03-17T12:40:32.626Z,100590.0
2023-03-17T12:45:32.467Z,100590.0
2023-03-17T12:50:32.149Z,100600.0
2023-03-17T12:55:32.412Z,100590.0
2023-03-17T13:00:32.151Z,100590.0
2023-03-17T13:05:32.556Z,100570.0
2023-03-17T13:10:32.406Z,100560.0
2023-03-17T13:15:32.535Z,100570.0
2023-03-17T13:20:32.164Z,100550.0
2023-03-17T13:25:32.676Z,100550.0
2023-03-17T13:30:32.494Z,100560.0
2023-03-17T13:35:32.637Z,100560.0
2023-03-17T13:40:32.545Z,100550.0
2023-03-17T13:45:32.554Z,100560.0
2023-03-17T13:50:32.184Z,100540.0
2023-03-17T13:55:32.444Z,100540.0
2023-03-17T14:00:32.269Z,100540.0
2023-03-17T14:05:32.746Z,100530.0
2023-03-17T14:10:32.213Z,100540.0
2023-03-17T14:15:32.520Z,100530.0
2023-03-17T14:20:32.194Z,100530.0
2023-03-17T14:25:32.578Z,100510.0
2023-03-17T14:30:32.206Z,100510.0
2023-03-17T14:35:32.923Z,100500.0
2023-03-17T14:40:32.212Z,100510.0
2023-03-17T14:45:32.468Z,100520.0
2023-03-17T14:50:32.230Z,100510.0
2023-03-17T14:55:32.754Z,100500.0
2023-03-17T15:00:32.345Z,100490.0
2023-03-17T15:05:32.506Z,100490.0
2023-03-17T15:10:32.498Z,100490.0
2023-03-17T15:15:32.243Z,100480.0
2023-03-17T15:20:32.728Z,100490.0
2023-03-17T15:25:32.261Z,100490.0
2023-03-17T15:30:48.082Z,100480.0
2023-03-17T15:35:32.267Z,100470.0
2023-03-17T15:40:32.968Z,100480.0
2023-03-17T15:45:32.259Z,100490.0
2023-03-17T15:50:32.536Z,100480.0
2023-03-17T15:55:32.281Z,100470.0
2023-03-17T16:00:32.528Z,100480.0
2023-03-17T16:05:32.261Z,100480.0
2023-03-17T16:10:32.841Z,100480.0
2023-03-17T16:15:32.273Z,100480.0
2023-03-17T16:20:32.651Z,100480.0
2023-03-17T16:25:32.271Z,100480.0
2023-03-17T16:30:32.462Z,100480.0
2023-03-17T16:35:32.300Z,100490.0
2023-03-17T16:40:32.639Z,100490.0
2023-03-17T16:45:32.283Z,100490.0
2023-03-17T16:50:32.591Z,100490.0
2023-03-17T16:55:32.294Z,100500.0
2023-03-17T17:00:32.644Z,100490.0
2023-03-17T17:05:32.296Z,100490.0
2023-03-17T17:10:32.591Z,100500.0
2023-03-17T17:15:32.300Z,100500.0
2023-03-17T17:20:32.600Z,100500.0
2023-03-17T17:25:32.575Z,100500.0
2023-03-17T17:30:32.785Z,100520.0
2023-03-17T17:35:32.967Z,100530.0
2023-03-17T17:40:32.601Z,100540.0
2023-03-17T17:45:32.336Z,100540.0
2023-03-17T17:50:32.677Z,100540.0
2023-03-17T17:55:32.390Z,100550.0
2023-03-17T18:00:32.576Z,100540.0
2023-03-17T18:05:32.340Z,100550.0
2023-03-17T18:10:32.533Z,100560.0
2023-03-17T18:15:32.321Z,100560.0
2023-03-17T18:20:32.711Z,100570.0
2023-03-17T18:25:32.328Z,100560.0
2023-03-17T18:30:32.607Z,100560.0
2023-03-17T18:35:32.387Z,100570.0
2023-03-17T18:40:32.412Z,100560.0
2023-03-17T18:45:32.479Z,100560.0
2023-03-17T18:50:32.847Z,100570.0
2023-03-17T18:55:32.391Z,100580.0
2023-03-17T19:00:32.735Z,100580.0
2023-03-17T19:05:32.346Z,100580.0
2023-03-17T19:10:32.667Z,100580.0
2023-03-17T19:15:32.352Z,100570.0
2023-03-17T19:20:32.772Z,100580.0
2023-03-17T19:25:32.356Z,100580.0
2023-03-17T19:30:32.610Z,100580.0
2023-03-17T19:35:32.516Z,100590.0
2023-03-17T19:40:32.739Z,100590.0
2023-03-17T19:45:32.405Z,100590.0
2023-03-17T19:50:32.683Z,100590.0
2023-03-17T19:55:32.720Z,100590.0
2023-03-17T20:00:32.786Z,100590.0
2023-03-17T20:05:32.385Z,100590.0
2023-03-17T20:10:32.688Z,100600.0
2023-03-17T20:15:32.377Z,100610.0
2023-03-17T20:20:32.687Z,100600.0
2023-03-17T20:25:32.383Z,100590.0
2023-03-17T20:30:32.923Z,100610.0
2023-03-17T20:35:32.405Z,100610.0
2023-03-17T20:40:32.574Z,100620.0
2023-03-17T20:45:32.408Z,100630.0
2023-03-17T20:50:32.738Z,100630.0
2023-03-17T20:55:32.405Z,100640.0
2023-03-17T21:00:32.697Z,100650.0
2023-03-17T21:05:32.409Z,100650.0
2023-03-17T21:10:32.572Z,100640.0
2023-03-17T21:15:32.412Z,100640.0
2023-03-17T21:20:32.704Z,100650.0
2023-03-17T21:25:32.420Z,100640.0
2023-03-17T21:30:32.756Z,100650.0
2023-03-17T21:35:32.496Z,100640.0
2023-03-17T21:40:32.651Z,100640.0
2023-03-17T21:45:32.462Z,100640.0
2023-03-17T21:50:32.772Z,100640.0
2023-03-17T21:55:32.434Z,100640.0
2023-03-17T22:00:45.857Z,100650.0
2023-03-17T22:05:32.447Z,100650.0
2023-03-17T22:10:32.742Z,100650.0
2023-03-17T22:15:32.446Z,100660.0
2023-03-17T22:20:32.965Z,100660.0
2023-03-17T22:25:32.454Z,100650.0
2023-03-17T22:30:32.701Z,100660.0
2023-03-17T22:35:32.490Z,100660.0
2023-03-17T22:40:32.795Z,100660.0
2023-03-17T22:45:32.479Z,100660.0
2023-03-17T22:50:32.818Z,100670.0
2023-03-17T22:55:32.506Z,100670.0
2023-03-17T23:00:32.980Z,100670.0
2023-03-17T23:05:32.498Z,100680.0
2023-03-17T23:10:33.001Z,100690.0
2023-03-17T23:15:32.489Z,100700.0
2023-03-17T23:20:32.826Z,100700.0
2023-03-17T23:25:32.496Z,100700.0
2023-03-17T23:30:32.710Z,100690.0
2023-03-17T23:35:32.652Z,100690.0
2023-03-17T23:40:32.777Z,100690.0
2023-03-17T23:45:32.495Z,100700.0
2023-03-17T23:50:32.836Z,100700.0
2023-03-17T23:55:32.506Z,100700.0
